Time;durP1;ratioP1;P1;durP2;ratioP2;P2;SDS_P1;SDS_P2;PMS_P1;PMS_P2;Temp;Humidity;BMP_temperature;BMP_pressure;BME280_temperature;BME280_humidity;BME280_pressure;Samples;Min_cycle;Max_cycle;Signal;HPM_P1;HPM_P2
2023/07/13 00:01:31;;;;;;;0.70;0.70;;;;;;;27.76;75.09;99479.50;5072933;28;20208;-62
2023/07/13 00:03:58;;;;;;;0.87;0.87;;;;;;;27.78;74.96;99488.09;5072630;28;20212;-62
2023/07/13 00:06:25;;;;;;;2.17;1.00;;;;;;;27.76;74.33;99490.03;5068465;28;20207;-62
2023/07/13 00:08:53;;;;;;;1.80;1.70;;;;;;;27.69;75.30;99488.97;5072647;28;20204;-63
2023/07/13 00:11:20;;;;;;;1.20;1.10;;;;;;;27.63;75.23;99484.31;5072702;28;20203;-62
2023/07/13 00:13:46;;;;;;;1.47;1.40;;;;;;;27.59;75.68;99489.06;5072723;28;20200;-62
2023/07/13 00:16:14;;;;;;;1.67;1.43;;;;;;;27.53;75.44;99473.06;5072301;28;20200;-62
2023/07/13 00:18:41;;;;;;;1.53;1.43;;;;;;;27.46;76.23;99472.03;5072833;28;20752;-62
2023/07/13 00:21:08;;;;;;;1.60;1.10;;;;;;;27.37;77.98;99476.34;5072487;28;20618;-62
2023/07/13 00:23:38;;;;;;;0.70;0.70;;;;;;;27.30;79.74;99471.84;5072572;28;20200;-62
2023/07/13 00:26:09;;;;;;;1.50;1.40;;;;;;;27.17;82.02;99455.59;5072353;28;20249;-62
2023/07/13 00:28:36;;;;;;;1.27;1.27;;;;;;;27.13;84.54;99471.69;5072236;28;20224;-62
2023/07/13 00:31:03;;;;;;;1.17;1.13;;;;;;;27.14;85.24;99473.31;5072242;28;20195;-62
2023/07/13 00:33:30;;;;;;;6.67;1.57;;;;;;;27.17;85.10;99460.88;5072357;28;20211;-62
2023/07/13 00:35:57;;;;;;;1.20;1.10;;;;;;;27.14;86.53;99457.53;5071887;28;20192;-62
2023/07/13 00:38:24;;;;;;;1.70;1.60;;;;;;;27.13;86.86;99450.63;5072059;28;20257;-62
2023/07/13 00:40:51;;;;;;;1.00;1.00;;;;;;;27.10;86.95;99461.47;5072270;28;20208;-62
2023/07/13 00:43:20;;;;;;;1.43;1.17;;;;;;;27.02;87.52;99452.63;5071771;28;20246;-62
2023/07/13 00:46:17;;;;;;;1.47;1.37;;;;;;;27.07;86.59;99456.50;5071908;28;20303;-62
2023/07/13 00:48:47;;;;;;;1.07;1.03;;;;;;;27.01;86.70;99457.06;5072102;28;20207;-61
2023/07/13 00:51:18;;;;;;;2.80;1.50;;;;;;;26.95;87.39;99457.66;5072053;28;20200;-62
2023/07/13 00:53:45;;;;;;;0.97;0.90;;;;;;;26.88;87.93;99455.81;5071886;28;20261;-62
2023/07/13 00:56:12;;;;;;;1.33;1.23;;;;;;;26.80;87.61;99448.59;5069512;28;20640;-62
2023/07/13 00:58:41;;;;;;;2.40;1.80;;;;;;;26.84;86.67;99452.63;5071496;28;20212;-62
2023/07/13 01:01:08;;;;;;;0.80;0.80;;;;;;;26.83;85.96;99450.97;5071781;28;20200;-62
2023/07/13 01:03:35;;;;;;;1.23;1.23;;;;;;;26.83;86.11;99445.72;5071264;28;20254;-62
2023/07/13 01:06:02;;;;;;;2.50;0.90;;;;;;;26.82;85.84;99448.50;5071631;28;20273;-62
2023/07/13 01:08:29;;;;;;;1.90;1.67;;;;;;;26.75;85.99;99445.59;5071641;28;20218;-62
2023/07/13 01:10:57;;;;;;;1.57;1.47;;;;;;;26.75;86.65;99445.59;5071808;28;20557;-62
2023/07/13 01:13:25;;;;;;;1.50;1.40;;;;;;;26.75;87.45;99450.03;5071274;28;20591;-62
2023/07/13 01:15:55;;;;;;;2.07;1.40;;;;;;;26.76;87.35;99444.59;5071589;28;20580;-62
2023/07/13 01:18:25;;;;;;;1.73;1.27;;;;;;;26.74;88.44;99443.94;5071485;28;20200;-62
2023/07/13 01:20:56;;;;;;;2.07;1.87;;;;;;;26.68;88.53;99438.44;5071742;28;20203;-62
2023/07/13 01:23:24;;;;;;;1.00;1.00;;;;;;;26.59;87.77;99434.91;5067543;28;20222;-62
2023/07/13 01:25:50;;;;;;;1.10;1.00;;;;;;;26.69;87.84;99440.91;5071050;28;20212;-61
2023/07/13 01:28:18;;;;;;;3.40;1.47;;;;;;;26.55;88.88;99429.09;5070560;28;20687;-62
2023/07/13 01:30:46;;;;;;;1.73;1.63;;;;;;;26.58;88.83;99433.25;5071107;28;20203;-61
2023/07/13 01:33:14;;;;;;;1.40;1.30;;;;;;;26.55;89.13;99442.25;5070932;28;20200;-61
2023/07/13 01:35:41;;;;;;;1.20;1.00;;;;;;;26.55;88.77;99449.31;5071033;28;20233;-62
2023/07/13 01:38:10;;;;;;;1.20;1.20;;;;;;;26.54;88.84;99437.13;5071221;28;20249;-61
2023/07/13 01:40:38;;;;;;;1.37;1.30;;;;;;;26.41;88.53;99426.13;5071127;28;20196;-62
2023/07/13 01:43:05;;;;;;;2.03;1.90;;;;;;;26.34;89.92;99419.78;5071061;28;20196;-62
2023/07/13 01:45:32;;;;;;;1.60;1.53;;;;;;;26.40;90.73;99442.84;5071012;28;20234;-62
2023/07/13 01:47:59;;;;;;;0.80;0.80;;;;;;;26.35;90.60;99448.56;5070855;28;20196;-62
2023/07/13 01:50:26;;;;;;;1.00;1.00;;;;;;;26.27;91.23;99440.56;5070990;28;20234;-62
2023/07/13 01:52:53;;;;;;;1.27;1.20;;;;;;;26.25;90.96;99436.44;5070960;28;20294;-62
2023/07/13 01:55:22;;;;;;;1.60;1.27;;;;;;;26.23;90.43;99438.38;5070844;28;20245;-62
2023/07/13 01:57:49;;;;;;;1.00;0.93;;;;;;;26.21;90.99;99446.41;5070775;28;20196;-61
2023/07/13 02:00:17;;;;;;;1.10;1.00;;;;;;;26.14;90.81;99439.22;5070731;28;20200;-62
2023/07/13 02:02:44;;;;;;;1.57;1.47;;;;;;;26.18;90.57;99451.13;5070746;28;20188;-62
2023/07/13 02:05:11;;;;;;;1.67;1.60;;;;;;;26.19;89.89;99458.03;5070225;28;20226;-61
2023/07/13 02:07:38;;;;;;;1.07;1.07;;;;;;;26.08;90.45;99451.94;5069780;28;20196;-61
2023/07/13 02:10:06;;;;;;;3.00;1.10;;;;;;;26.14;90.71;99468.13;5069758;28;20200;-61
2023/07/13 02:12:34;;;;;;;2.27;1.47;;;;;;;26.09;90.32;99464.13;5074799;28;20199;-61
2023/07/13 02:15:01;;;;;;;1.33;1.13;;;;;;;26.10;90.33;99465.78;5074716;28;20203;-61
2023/07/13 02:17:28;;;;;;;0.90;0.90;;;;;;;26.08;90.92;99465.09;5075071;28;20676;-62
2023/07/13 02:19:55;;;;;;;2.57;1.20;;;;;;;26.10;90.40;99473.69;5074838;28;20648;-62
2023/07/13 02:22:22;;;;;;;1.33;1.30;;;;;;;26.10;89.84;99473.69;5074938;28;20222;-62
2023/07/13 02:24:49;;;;;;;2.60;0.83;;;;;;;26.04;91.14;99476.03;5074593;28;20274;-61
2023/07/13 02:27:16;;;;;;;1.00;1.00;;;;;;;25.91;91.99;99468.44;5074808;28;20730;-61
2023/07/13 02:29:44;;;;;;;1.37;1.30;;;;;;;25.77;91.60;99465.44;5074784;28;20707;-61
2023/07/13 02:32:11;;;;;;;1.57;1.40;;;;;;;25.69;91.42;99444.31;5070020;28;20212;-62
2023/07/13 02:34:38;;;;;;;1.10;1.10;;;;;;;25.82;91.27;99458.78;5074604;28;20202;-61
2023/07/13 02:37:05;;;;;;;1.30;1.20;;;;;;;25.81;90.80;99465.03;5074404;28;20621;-62
2023/07/13 02:39:32;;;;;;;1.90;1.23;;;;;;;25.82;89.99;99466.66;5074456;28;20212;-61
2023/07/13 02:41:59;;;;;;;1.20;1.10;;;;;;;25.83;89.88;99467.50;5074529;28;20200;-61
2023/07/13 02:44:26;;;;;;;1.27;1.23;;;;;;;25.73;90.32;99472.75;5074589;28;20204;-62
2023/07/13 02:46:54;;;;;;;1.40;1.30;;;;;;;25.74;90.63;99479.69;5074343;28;20204;-62
2023/07/13 02:49:21;;;;;;;3.50;1.20;;;;;;;25.66;89.82;99471.66;5074304;28;20197;-62
2023/07/13 02:51:48;;;;;;;0.90;0.90;;;;;;;25.72;89.83;99481.59;5074356;28;20196;-61
2023/07/13 02:54:15;;;;;;;1.90;1.13;;;;;;;25.70;90.25;99477.47;5074179;28;20204;-62
2023/07/13 02:56:43;;;;;;;1.27;1.20;;;;;;;25.71;90.21;99485.22;5074083;28;20683;-61
2023/07/13 02:59:10;;;;;;;1.67;1.40;;;;;;;25.65;90.97;99490.19;5073931;28;20208;-61
2023/07/13 03:01:37;;;;;;;1.43;1.43;;;;;;;25.49;90.52;99474.97;5073969;28;20200;-62
2023/07/13 03:04:05;;;;;;;1.83;1.03;;;;;;;25.44;91.18;99490.31;5073659;28;20208;-62
2023/07/13 03:06:32;;;;;;;1.00;1.00;;;;;;;25.47;91.21;99500.53;5073332;28;20219;-61
2023/07/13 03:08:59;;;;;;;1.30;1.20;;;;;;;25.35;92.32;99499.00;5074303;28;20199;-61
2023/07/13 03:11:27;;;;;;;1.90;1.03;;;;;;;25.32;92.54;99491.41;5073499;28;20207;-62
2023/07/13 03:13:54;;;;;;;1.07;0.97;;;;;;;25.35;91.66;99488.50;5073842;28;20192;-61
2023/07/13 03:16:21;;;;;;;3.47;1.77;;;;;;;25.41;91.47;99494.03;5073608;28;20723;-61
2023/07/13 03:18:48;;;;;;;3.60;2.93;;;;;;;25.42;91.84;99489.63;5073850;28;20557;-61
2023/07/13 03:21:17;;;;;;;1.73;1.63;;;;;;;25.40;91.73;99475.78;5073661;28;20188;-61
2023/07/13 03:23:44;;;;;;;4.10;1.73;;;;;;;25.41;91.21;99482.69;5073525;28;20192;-61
2023/07/13 03:26:14;;;;;;;1.63;1.53;;;;;;;25.38;91.05;99480.34;5073446;28;20223;-61
2023/07/13 03:28:41;;;;;;;2.07;1.10;;;;;;;25.39;90.91;99480.22;5073497;28;20224;-62
2023/07/13 03:31:09;;;;;;;1.30;1.20;;;;;;;25.34;91.16;99468.47;5073670;28;20581;-61
2023/07/13 03:33:37;;;;;;;1.93;1.27;;;;;;;25.44;90.81;99485.06;5073493;28;20192;-61
2023/07/13 03:36:05;;;;;;;0.93;0.93;;;;;;;25.48;90.39;99484.66;5073352;28;20192;-61
2023/07/13 03:38:33;;;;;;;1.17;1.17;;;;;;;25.51;90.88;99473.91;5072931;28;20203;-61
2023/07/13 03:41:01;;;;;;;1.10;1.10;;;;;;;25.50;91.27;99476.66;5068469;28;20200;-62
2023/07/13 03:43:28;;;;;;;0.80;0.80;;;;;;;25.56;90.66;99481.34;5073283;28;20286;-62
2023/07/13 03:45:54;;;;;;;1.50;1.40;;;;;;;25.60;90.82;99482.72;5073333;28;20215;-61
2023/07/13 03:48:21;;;;;;;0.93;0.93;;;;;;;25.57;90.78;99483.00;5073277;28;20682;-61
2023/07/13 03:50:49;;;;;;;1.63;1.23;;;;;;;25.62;90.70;99486.06;5073458;28;20199;-61
2023/07/13 03:53:15;;;;;;;1.23;1.23;;;;;;;25.65;91.46;99484.94;5073468;28;20206;-61
2023/07/13 03:55:44;;;;;;;1.80;1.70;;;;;;;25.68;92.12;99488.13;5072977;28;20196;-61
2023/07/13 03:58:30;;;;;;;1.90;1.80;;;;;;;25.74;92.04;99490.19;5073292;28;20287;-61
2023/07/13 04:00:58;;;;;;;1.07;0.97;;;;;;;25.63;91.43;99466.69;5073067;28;20196;-61
2023/07/13 04:03:27;;;;;;;1.30;1.30;;;;;;;25.79;90.45;99487.97;5073027;28;20224;-61
2023/07/13 04:05:54;;;;;;;1.57;1.20;;;;;;;25.88;91.09;99487.09;5072666;28;20220;-61
2023/07/13 04:08:21;;;;;;;1.77;1.67;;;;;;;25.89;90.41;99483.53;5073068;28;20254;-61
2023/07/13 04:10:49;;;;;;;0.90;0.90;;;;;;;25.98;89.06;99490.56;5072560;28;20258;-61
2023/07/13 04:13:16;;;;;;;1.10;1.10;;;;;;;26.13;89.33;99490.94;5072831;28;20196;-61
2023/07/13 04:15:42;;;;;;;1.57;1.47;;;;;;;26.24;86.90;99489.97;5072473;28;20200;-61
2023/07/13 04:18:09;;;;;;;2.80;1.13;;;;;;;26.37;86.16;99488.66;5072795;28;20196;-62
2023/07/13 04:20:36;;;;;;;2.13;1.10;;;;;;;26.52;85.96;99496.94;5072684;28;20231;-62
2023/07/13 04:23:03;;;;;;;1.30;1.30;;;;;;;26.65;85.09;99486.91;5072849;28;20196;-61
2023/07/13 04:25:30;;;;;;;1.80;1.70;;;;;;;26.78;84.75;99490.03;5072284;28;20223;-62
2023/07/13 04:27:58;;;;;;;1.07;1.07;;;;;;;26.93;82.65;99493.00;5072463;28;20215;-61
2023/07/13 04:30:26;;;;;;;1.60;1.50;;;;;;;26.89;80.87;99489.84;5072405;28;20291;-61
2023/07/13 04:32:53;;;;;;;1.90;1.73;;;;;;;26.88;80.85;99472.38;5072138;28;20210;-61
2023/07/13 04:35:21;;;;;;;2.20;1.60;;;;;;;27.19;80.91;99495.75;5071836;28;20719;-61
2023/07/13 04:37:49;;;;;;;2.53;1.63;;;;;;;27.32;79.70;99502.31;5070807;28;20732;-62
2023/07/13 04:40:17;;;;;;;1.97;1.87;;;;;;;27.46;78.65;99509.72;5072363;28;20638;-61
2023/07/13 04:42:44;;;;;;;2.60;2.10;;;;;;;27.56;78.73;99504.38;5071866;28;20253;-61
2023/07/13 04:45:13;;;;;;;1.20;1.20;;;;;;;27.76;77.94;99510.28;5072220;28;20215;-61
2023/07/13 04:47:40;;;;;;;1.83;1.73;;;;;;;27.96;77.87;99507.31;5072054;28;20287;-61
2023/07/13 04:50:08;;;;;;;1.07;1.07;;;;;;;28.20;77.42;99508.50;5072682;28;20725;-61
2023/07/13 04:52:35;;;;;;;1.27;1.20;;;;;;;28.40;75.48;99507.31;5072228;28;20671;-61
2023/07/13 04:55:02;;;;;;;1.67;1.57;;;;;;;28.64;74.92;99504.75;5071526;28;20200;-61
2023/07/13 04:57:29;;;;;;;1.70;1.60;;;;;;;28.77;73.39;99510.47;5072100;28;20196;-62
2023/07/13 04:59:56;;;;;;;1.43;1.37;;;;;;;28.96;72.39;99512.00;5072045;28;20257;-62
2023/07/13 05:02:24;;;;;;;1.90;1.80;;;;;;;29.10;71.74;99514.03;5071966;28;20676;-62
2023/07/13 05:04:50;;;;;;;1.63;1.53;;;;;;;29.32;71.31;99513.44;5071681;28;20273;-61
2023/07/13 05:07:17;;;;;;;5.63;2.37;;;;;;;29.51;71.05;99514.94;5071713;28;20216;-61
2023/07/13 05:09:44;;;;;;;1.90;1.50;;;;;;;29.65;67.42;99516.94;5071863;28;20203;-62
2023/07/13 05:12:11;;;;;;;1.63;1.53;;;;;;;29.81;67.13;99514.31;5071643;28;20680;-61
2023/07/13 05:14:38;;;;;;;1.80;1.70;;;;;;;30.02;66.87;99522.56;5071923;28;20270;-62
2023/07/13 05:17:05;;;;;;;1.75;1.65;;;;;;;30.21;65.62;99514.25;5071711;28;20672;-62
2023/07/13 05:19:34;;;;;;;2.30;2.20;;;;;;;30.44;66.06;99517.06;5071889;28;20207;-62
2023/07/13 05:22:02;;;;;;;2.70;1.33;;;;;;;30.64;63.72;99517.47;5071754;28;20672;-62
2023/07/13 05:24:29;;;;;;;2.25;1.95;;;;;;;30.81;63.04;99516.44;5071472;28;20192;-61
2023/07/13 05:26:56;;;;;;;3.15;2.15;;;;;;;30.93;62.27;99520.34;5071029;28;20277;-62
2023/07/13 05:29:23;;;;;;;1.60;1.50;;;;;;;31.14;61.01;99525.06;5071636;28;20696;-62
2023/07/13 05:31:51;;;;;;;1.27;1.20;;;;;;;31.34;60.84;99512.19;5071831;28;20656;-61
2023/07/13 05:34:17;;;;;;;1.65;1.55;;;;;;;31.58;62.54;99520.81;5063273;28;20611;-62
2023/07/13 05:36:46;;;;;;;1.45;1.33;;;;;;;31.75;59.46;99516.22;5071535;28;20669;-61
2023/07/13 05:39:12;;;;;;;2.35;1.30;;;;;;;31.85;58.33;99500.88;5071158;28;20282;-61
2023/07/13 05:41:39;;;;;;;1.77;1.67;;;;;;;32.10;57.84;99518.25;5071398;28;20206;-61
2023/07/13 05:44:06;;;;;;;1.75;1.65;;;;;;;32.26;58.58;99517.25;5071120;28;20207;-62
2023/07/13 05:46:33;;;;;;;1.73;1.63;;;;;;;32.51;58.20;99523.91;5070488;28;20228;-61
2023/07/13 05:49:00;;;;;;;2.75;1.42;;;;;;;32.71;56.77;99526.88;5071279;28;20210;-62
2023/07/13 05:51:27;;;;;;;2.97;1.30;;;;;;;32.82;53.72;99529.06;5071130;28;20253;-62
2023/07/13 05:53:55;;;;;;;2.08;1.98;;;;;;;32.90;53.65;99526.28;5071144;28;20254;-62
2023/07/13 05:56:22;;;;;;;1.70;1.60;;;;;;;33.07;54.38;99517.09;5071133;28;20193;-62
2023/07/13 05:58:49;;;;;;;2.22;1.48;;;;;;;33.19;51.07;99507.66;5071231;28;20204;-62
2023/07/13 06:01:17;;;;;;;1.55;1.45;;;;;;;33.40;50.09;99506.03;5070965;28;20196;-61
2023/07/13 06:03:43;;;;;;;1.40;1.30;;;;;;;33.73;49.08;99523.16;5069320;28;20469;-65
2023/07/13 06:06:11;;;;;;;1.67;1.58;;;;;;;34.02;51.36;99532.78;5068084;28;20669;-65
2023/07/13 06:08:39;;;;;;;1.40;1.30;;;;;;;34.21;48.44;99540.94;5069766;28;20219;-65
2023/07/13 06:11:10;;;;;;;1.25;1.23;;;;;;;34.33;47.61;99537.72;5070340;28;20206;-64
2023/07/13 06:13:37;;;;;;;2.10;1.90;;;;;;;34.45;47.87;99539.66;5071106;28;20196;-64
2023/07/13 06:16:05;;;;;;;1.75;1.65;;;;;;;34.36;46.89;99542.66;5070225;28;20199;-64
2023/07/13 06:18:32;;;;;;;1.30;1.20;;;;;;;34.46;47.20;99546.63;5069679;28;20230;-64
2023/07/13 06:20:59;;;;;;;1.33;1.33;;;;;;;34.67;47.78;99543.88;5066533;28;20196;-65
2023/07/13 06:23:26;;;;;;;1.90;1.75;;;;;;;34.75;47.56;99534.94;5070217;28;20200;-64
2023/07/13 06:25:53;;;;;;;1.23;1.23;;;;;;;34.70;46.74;99535.50;5068443;28;20220;-64
2023/07/13 06:28:21;;;;;;;1.80;1.38;;;;;;;34.81;45.94;99528.81;5070070;28;20219;-63
2023/07/13 06:30:48;;;;;;;1.45;1.35;;;;;;;34.97;45.90;99528.44;5070340;28;20641;-63
2023/07/13 06:33:14;;;;;;;1.80;1.65;;;;;;;35.15;45.17;99523.44;5070293;28;20196;-63
2023/07/13 06:35:41;;;;;;;1.48;1.38;;;;;;;35.39;43.97;99522.03;5069136;28;20250;-63
2023/07/13 06:38:08;;;;;;;1.55;1.45;;;;;;;35.38;42.35;99524.91;5069914;28;20196;-63
2023/07/13 06:40:35;;;;;;;1.63;1.25;;;;;;;35.51;40.55;99531.06;5069812;28;20196;-63
2023/07/13 06:43:01;;;;;;;1.73;1.15;;;;;;;35.56;43.54;99519.78;5069908;28;20261;-64
2023/07/13 06:45:29;;;;;;;1.23;1.23;;;;;;;35.64;43.17;99524.97;5069415;28;20200;-63
2023/07/13 06:47:56;;;;;;;2.08;1.40;;;;;;;35.83;43.06;99521.50;5068905;28;20215;-64
2023/07/13 06:50:23;;;;;;;1.80;1.70;;;;;;;36.04;42.58;99525.78;5069073;28;20211;-63
2023/07/13 06:52:50;;;;;;;1.55;1.30;;;;;;;36.33;43.33;99514.66;5069559;28;20203;-64
2023/07/13 06:55:17;;;;;;;1.10;1.10;;;;;;;36.60;42.93;99528.81;5066381;28;20640;-64
2023/07/13 06:57:43;;;;;;;1.30;1.30;;;;;;;36.90;41.29;99527.22;5071730;28;20269;-64
2023/07/13 07:00:12;;;;;;;2.38;1.63;;;;;;;36.98;40.72;99523.50;5072830;28;20207;-64
2023/07/13 07:02:40;;;;;;;7.13;1.52;;;;;;;37.18;39.54;99524.25;5073181;28;20534;-64
2023/07/13 07:05:07;;;;;;;2.90;1.08;;;;;;;37.20;41.15;99523.00;5073739;28;20207;-63
2023/07/13 07:07:33;;;;;;;2.35;1.38;;;;;;;37.29;39.53;99529.72;5072163;28;20220;-64
2023/07/13 07:10:00;;;;;;;1.30;1.30;;;;;;;37.50;39.20;99533.13;5073151;28;20672;-63
2023/07/13 07:12:27;;;;;;;1.58;1.45;;;;;;;37.69;39.39;99521.47;5073175;28;20261;-63
2023/07/13 07:15:00;;;;;;;3.42;1.65;;;;;;;37.85;37.72;99520.91;5073319;28;20211;-63
2023/07/13 07:17:26;;;;;;;1.75;1.35;;;;;;;37.63;41.63;99520.47;5072688;28;20204;-64
2023/07/13 07:19:55;;;;;;;1.23;1.23;;;;;;;37.89;37.56;99521.28;5073068;28;20703;-64
2023/07/13 07:22:21;;;;;;;4.95;1.98;;;;;;;38.08;37.05;99529.19;5071411;28;20645;-63
2023/07/13 07:24:48;;;;;;;1.75;1.52;;;;;;;38.19;37.70;99530.31;5073270;28;20200;-63
2023/07/13 07:27:15;;;;;;;2.78;1.48;;;;;;;38.45;36.56;99531.94;5072802;28;20223;-64
2023/07/13 07:29:42;;;;;;;1.00;1.00;;;;;;;38.51;36.61;99531.88;5071934;28;20239;-63
2023/07/13 07:32:09;;;;;;;1.35;1.25;;;;;;;38.46;36.73;99536.22;5073077;28;20204;-64
2023/07/13 07:34:36;;;;;;;2.53;1.55;;;;;;;38.16;36.84;99525.41;5072224;28;20216;-64
2023/07/13 07:37:04;;;;;;;1.45;1.38;;;;;;;38.15;39.16;99516.56;5073468;28;20204;-64
2023/07/13 07:39:31;;;;;;;1.40;1.30;;;;;;;37.96;36.89;99522.09;5073415;28;20196;-64
2023/07/13 07:41:58;;;;;;;1.52;1.42;;;;;;;37.98;37.34;99514.66;5072619;28;20200;-64
2023/07/13 07:44:26;;;;;;;1.23;1.23;;;;;;;37.85;35.10;99504.84;5072965;28;20200;-63
2023/07/13 07:46:53;;;;;;;0.80;0.80;;;;;;;38.08;34.22;99513.13;5073082;28;20224;-64
2023/07/13 07:49:20;;;;;;;0.80;0.80;;;;;;;37.90;33.94;99510.38;5072597;28;20204;-64
2023/07/13 07:51:47;;;;;;;1.02;1.02;;;;;;;37.96;35.51;99506.03;5072661;28;20199;-64
2023/07/13 07:54:15;;;;;;;2.83;1.10;;;;;;;37.75;37.50;99504.53;5071494;28;20203;-63
2023/07/13 07:56:42;;;;;;;1.25;1.15;;;;;;;38.01;34.08;99509.69;5071540;28;20745;-63
2023/07/13 07:59:09;;;;;;;1.20;1.20;;;;;;;38.18;35.43;99510.75;5072978;28;20603;-64
2023/07/13 08:01:37;;;;;;;1.00;0.98;;;;;;;38.38;32.89;99509.75;5072141;28;20200;-63
2023/07/13 08:04:03;;;;;;;1.63;1.08;;;;;;;38.41;33.53;99501.28;5072048;28;20268;-63
2023/07/13 08:06:33;;;;;;;1.58;1.00;;;;;;;38.64;34.37;99504.09;5070878;28;20302;-63
2023/07/13 08:09:00;;;;;;;2.03;1.20;;;;;;;38.71;33.71;99502.16;5071674;28;20204;-63
2023/07/13 08:11:28;;;;;;;1.00;1.00;;;;;;;39.00;32.85;99504.03;5070245;28;20207;-65
2023/07/13 08:13:55;;;;;;;1.35;1.25;;;;;;;39.08;32.68;99502.91;5069030;28;20199;-63
2023/07/13 08:16:22;;;;;;;1.45;1.35;;;;;;;39.15;34.24;99501.78;5069095;28;20203;-63
2023/07/13 08:18:49;;;;;;;1.10;1.10;;;;;;;39.02;34.04;99507.31;5071563;28;20235;-64
2023/07/13 08:21:16;;;;;;;1.33;0.90;;;;;;;39.26;33.55;99492.97;5071478;28;20200;-64
2023/07/13 08:23:43;;;;;;;1.10;1.00;;;;;;;39.57;32.91;99488.38;5071574;28;20260;-64
2023/07/13 08:26:10;;;;;;;1.20;1.20;;;;;;;39.51;31.70;99494.66;5072171;28;20203;-64
2023/07/13 08:28:38;;;;;;;1.45;1.35;;;;;;;39.56;32.70;99484.03;5072632;28;20216;-65
2023/07/13 08:31:07;;;;;;;1.33;1.23;;;;;;;39.88;30.72;99491.56;5072362;28;20196;-64
2023/07/13 08:33:35;;;;;;;1.00;1.00;;;;;;;40.04;30.52;99495.41;5070957;28;20207;-64
2023/07/13 08:36:01;;;;;;;0.80;0.80;;;;;;;39.98;30.30;99479.41;5071810;28;20203;-63
2023/07/13 08:38:28;;;;;;;1.15;1.05;;;;;;;40.15;30.79;99481.19;5071167;28;20561;-64
2023/07/13 08:40:57;;;;;;;1.00;1.00;;;;;;;40.16;32.63;99484.69;5070804;28;20200;-66
2023/07/13 08:43:28;;;;;;;1.15;1.05;;;;;;;40.40;31.00;99480.91;5071074;28;20207;-63
2023/07/13 08:46:06;;;;;;;1.48;1.25;;;;;;;40.58;29.69;99474.59;5069151;28;20626;-64
2023/07/13 08:52:01;;;;;;;1.00;1.00;;;;;;;40.53;30.01;99471.78;5067822;28;20195;-66
2023/07/13 08:54:32;;;;;;;1.58;1.48;;;;;;;40.47;31.63;99468.16;5119772;22;20226;-67
2023/07/13 08:57:03;;;;;;;0.90;0.90;;;;;;;40.15;30.76;99481.19;5110358;28;20197;-67
2023/07/13 08:59:34;;;;;;;1.35;1.35;;;;;;;40.17;29.63;99476.38;5111942;28;20237;-68
2023/07/13 09:02:28;;;;;;;1.00;1.00;;;;;;;40.30;29.68;99473.44;5112157;28;20198;-67
2023/07/13 09:05:00;;;;;;;1.20;1.20;;;;;;;40.33;29.71;99462.22;5110693;28;20199;-68
2023/07/13 09:07:41;;;;;;;1.08;1.00;;;;;;;40.51;29.20;99463.13;5110920;28;20214;-68
2023/07/13 09:10:18;;;;;;;1.25;1.17;;;;;;;40.74;29.79;99468.47;5110935;28;20247;-68
2023/07/13 09:12:58;;;;;;;1.60;1.50;;;;;;;40.98;28.26;99467.31;5109029;28;20202;-68
2023/07/13 09:15:31;;;;;;;1.00;0.80;;;;;;;41.04;29.93;99466.34;5112145;28;20199;-70
2023/07/13 09:18:05;;;;;;;1.38;1.27;;;;;;;41.13;31.16;99459.53;5111297;28;20698;-67
2023/07/13 09:20:36;;;;;;;2.58;1.20;;;;;;;41.16;29.72;99461.75;5109087;28;20251;-69
2023/07/13 09:23:08;;;;;;;1.20;1.10;;;;;;;41.40;27.56;99457.03;5111018;28;20203;-69
2023/07/13 09:25:36;;;;;;;0.80;0.80;;;;;;;41.63;28.08;99447.97;5110682;28;20191;-70
2023/07/13 09:28:12;;;;;;;1.25;1.15;;;;;;;41.69;28.88;99439.72;5108128;28;20236;-69
2023/07/13 09:30:47;;;;;;;0.80;0.80;;;;;;;41.78;28.75;99437.47;5110270;28;20651;-69
2023/07/13 09:33:15;;;;;;;0.95;0.95;;;;;;;41.92;27.74;99433.34;5110805;28;20194;-69
2023/07/13 09:35:42;;;;;;;1.17;1.17;;;;;;;42.01;27.47;99431.84;5105512;28;20202;-70
2023/07/13 09:38:14;;;;;;;2.55;0.80;;;;;;;42.07;27.09;99421.97;5109362;28;20683;-70
2023/07/13 09:41:04;;;;;;;1.42;1.20;;;;;;;42.20;27.73;99419.72;5107809;28;20251;-70
2023/07/13 09:43:31;;;;;;;0.90;0.90;;;;;;;42.31;27.07;99423.38;5109114;28;20198;-70
2023/07/13 09:45:58;;;;;;;1.50;1.50;;;;;;;42.02;25.58;99414.63;5105430;28;20198;-72
2023/07/13 09:48:35;;;;;;;1.10;1.10;;;;;;;41.93;27.50;99410.75;5108741;28;20211;-72
2023/07/13 09:51:14;;;;;;;1.00;1.00;;;;;;;41.85;27.35;99405.78;5107532;28;20202;-71
2023/07/13 09:53:43;;;;;;;1.30;0.90;;;;;;;42.04;27.87;99396.31;5103174;28;20290;-72
2023/07/13 09:56:20;;;;;;;1.20;1.20;;;;;;;41.86;27.97;99402.84;5106566;28;20238;-72
2023/07/13 09:58:47;;;;;;;1.00;1.00;;;;;;;41.99;26.20;99398.97;5105103;28;20601;-72
2023/07/13 10:01:15;;;;;;;1.10;1.05;;;;;;;41.99;25.63;99390.88;5104016;28;20272;-71
2023/07/13 10:03:54;;;;;;;0.88;0.88;;;;;;;41.71;25.16;99391.03;5106279;28;20267;-70
2023/07/13 10:06:23;;;;;;;1.20;1.20;;;;;;;41.67;25.49;99385.31;5103229;28;20210;-71
2023/07/13 10:08:52;;;;;;;0.90;0.90;;;;;;;41.87;27.50;99376.72;5105859;28;20226;-71
2023/07/13 10:11:22;;;;;;;1.38;1.27;;;;;;;42.00;29.51;99379.06;5106498;28;20241;-72
2023/07/13 10:13:52;;;;;;;1.15;1.13;;;;;;;41.80;27.90;99381.47;5105921;28;20194;-71
2023/07/13 10:16:19;;;;;;;1.88;1.15;;;;;;;41.92;27.02;99381.34;5106276;28;20282;-71
2023/07/13 10:18:50;;;;;;;1.15;1.15;;;;;;;42.21;25.91;99394.41;5107789;28;20199;-72
2023/07/13 10:21:20;;;;;;;0.80;0.80;;;;;;;42.38;23.96;99379.00;5106842;28;20214;-72
2023/07/13 10:23:52;;;;;;;1.10;1.10;;;;;;;42.29;25.27;99391.28;5108484;28;20202;-72
2023/07/13 10:26:30;;;;;;;1.00;1.00;;;;;;;42.21;24.35;99394.41;5104970;28;20199;-72
2023/07/13 10:29:00;;;;;;;0.90;0.90;;;;;;;42.26;23.91;99386.41;5108480;28;20701;-71
2023/07/13 10:31:27;;;;;;;1.20;1.20;;;;;;;42.03;24.13;99375.03;5108149;28;20198;-71
2023/07/13 10:33:55;;;;;;;1.00;0.93;;;;;;;41.94;24.73;99361.19;5110664;28;20211;-70
2023/07/13 10:36:32;;;;;;;0.88;0.88;;;;;;;41.77;25.51;99365.78;5107375;28;20201;-71
2023/07/13 10:39:02;;;;;;;0.80;0.80;;;;;;;41.87;24.99;99363.25;5107309;28;20194;-71
2023/07/13 10:41:35;;;;;;;0.80;0.80;;;;;;;42.00;24.23;99360.19;5107080;28;20238;-72
2023/07/13 10:44:03;;;;;;;0.80;0.80;;;;;;;42.14;27.22;99356.03;5111091;28;20199;-71
2023/07/13 10:46:31;;;;;;;0.90;0.90;;;;;;;42.18;26.50;99367.97;5109290;28;21489;-72
2023/07/13 10:49:04;;;;;;;3.55;0.90;;;;;;;42.25;25.72;99363.22;5111334;28;20643;-72
2023/07/13 10:51:32;;;;;;;0.82;0.82;;;;;;;42.40;25.83;99349.88;5110339;28;20194;-72
2023/07/13 10:54:16;;;;;;;0.80;0.80;;;;;;;42.58;24.08;99346.03;5113183;28;20206;-72
2023/07/13 10:56:43;;;;;;;1.00;1.00;;;;;;;42.57;24.67;99339.00;5112347;28;20255;-72
2023/07/13 10:59:14;;;;;;;0.77;0.77;;;;;;;42.56;24.11;99336.53;5112076;28;20206;-70
2023/07/13 11:01:51;;;;;;;2.72;1.05;;;;;;;42.56;24.11;99336.53;5108415;28;20558;-71
2023/07/13 11:04:21;;;;;;;0.98;0.98;;;;;;;42.54;24.14;99328.72;5110637;28;20198;-69
2023/07/13 11:06:51;;;;;;;0.70;0.70;;;;;;;42.54;23.95;99328.72;5109793;28;20329;-71
2023/07/13 11:09:32;;;;;;;1.33;1.10;;;;;;;42.55;24.15;99329.56;5112721;28;20234;-70
2023/07/13 11:12:00;;;;;;;0.73;0.70;;;;;;;42.56;23.94;99326.59;5106710;28;20229;-69
2023/07/13 11:14:31;;;;;;;0.80;0.80;;;;;;;42.63;24.60;99326.41;5112038;28;20585;-69
2023/07/13 11:16:59;;;;;;;1.23;1.20;;;;;;;42.40;23.80;99324.81;5110876;28;20230;-69
2023/07/13 11:19:42;;;;;;;0.93;0.93;;;;;;;41.97;24.43;99320.28;5111070;28;20589;-68
2023/07/13 11:22:21;;;;;;;0.85;0.85;;;;;;;41.98;24.83;99321.06;5110305;28;20203;-69
2023/07/13 11:25:00;;;;;;;1.00;1.00;;;;;;;42.18;24.34;99316.78;5107437;28;20267;-68
2023/07/13 11:27:42;;;;;;;1.00;1.00;;;;;;;42.23;23.10;99310.63;5110461;28;20222;-68
2023/07/13 11:30:32;;;;;;;1.00;1.00;;;;;;;42.02;25.16;99311.44;5110915;28;20198;-68
2023/07/13 11:33:13;;;;;;;1.30;1.30;;;;;;;41.85;25.69;99306.13;5109677;28;20206;-69
2023/07/13 11:35:45;;;;;;;0.93;0.93;;;;;;;41.85;25.92;99301.56;5109846;28;20713;-70
2023/07/13 11:38:16;;;;;;;0.80;0.80;;;;;;;41.97;24.56;99314.91;5108758;28;20255;-69
2023/07/13 11:40:46;;;;;;;0.90;0.90;;;;;;;42.19;24.29;99306.81;5111116;28;20226;-68
2023/07/13 11:43:15;;;;;;;0.60;0.60;;;;;;;42.34;24.63;99291.59;5110084;28;20645;-69
2023/07/13 11:45:43;;;;;;;1.48;0.80;;;;;;;42.42;23.92;99301.13;5108678;28;20617;-69